Tiempo atmosférico en la estación meteorológica de Villardeciervos, Zamora (850 m.)



Fecha
DESCASC
Temp. máxima en grados centígrados (hora)
DESCASC
Temp. mínima en grados centígrados (hora)
DESCASC
Temp. media en grados centígrados
DESCASC
Racha de viento máxima en m/sg (hora)
DESCASC
Velocidad máxima media en intervalos de 10 minutos(hora)
DESCASC
Precipitaciones diarias en mm
DESCASC
Precipitaciones de 00:00 a 06:00 en mm
DESCASC
Precipitaciones de 06:00 a 12:00 en mm
DESCASC
Precipitaciones de 12:00 a 18:00 en mm
DESCASC
Precipitaciones de 18:00 a 24:00 en mm
DESCASC
05-04-2020 12.8 (15:30) 8.9 (06:30) 10.8 12.22 (00:20) 5.83 (00:20) 19.6 0 0.6 8.2 10.8
04-04-2020 17.5 (17:20) -1.9 (08:00) 7.8 18.89 (10:10) 5 (21:10) 0 0 0 0 0
03-04-2020 16.8 (19:10) 1.7 (08:20) 9.2 5.83 (15:40) 3.06 (17:50) 0 0 0 0 0
02-04-2020 14.9 (18:40) 5.4 (00:00) 10.1 8.61 (13:20) 4.44 (13:20) 4 1.8 1 1.2 0
01-04-2020 -- (--) -- (--) -- 8.33 (14:00) 5.28 (14:10) 10.4 3.4 0 7 0
31-03-2020 6.1 (17:20) -0.5 (-00:0) 2.8 13.06 (10:10) 6.11 (12:40) 1.4 0 0 0.6 0.8
30-03-2020 6.8 (00:00) 0.1 (00:00) 3.5 11.67 (23:20) 6.11 (18:20) 0.2 0 0.2 0 0
29-03-2020 18.6 (16:40) -1.8 (-00:0) 8.4 10.28 (22:00) 5.56 (21:50) 0 0 0 0 0
28-03-2020 16.2 (15:40) -3.8 (-00:0) 6.2 7.22 (12:50) 3.33 (13:50) 0 0 0 0 0
27-03-2020 11.8 (16:20) -2.9 (-00:0) 4.5 11.67 (16:30) 5.56 (10:40) 0 0 0 0 0
26-03-2020 18.1 (16:00) -2.9 (-00:0) 7.6 8.33 (19:40) 3.89 (17:40) 0 0 0 0 0
25-03-2020 21.3 (17:00) -0.4 (00:00) 10.4 8.89 (12:10) 5 (18:10) 0 0 0 0 0
24-03-2020 16.4 (16:30) 1 (00:00) 8.7 10.56 (15:10) 4.44 (12:40) 0 0 0 0 0
23-03-2020 15.4 (15:30) 3.5 (00:00) 9.4 9.44 (12:10) 4.72 (13:00) 0 0 0 0 0
22-03-2020 16.2 (15:50) 4.5 (07:10) 10.4 7.78 (18:00) 3.89 (16:40) 6 6 0 0 0
21-03-2020 11.9 (17:30) 6.4 (00:00) 9.1 8.89 (12:40) 4.72 (12:40) 1.4 0.6 0.2 0 0.6
20-03-2020 12.2 (18:10) 6.8 (00:00) 9.5 6.11 (07:50) 3.33 (15:20) 4.2 0.4 0.2 3.6 0
19-03-2020 17.2 (14:40) 2.9 (00:00) 10.1 6.39 (17:30) 3.33 (17:40) 0 0 0 0 0
18-03-2020 18.6 (16:20) 7.2 (00:00) 12.9 6.94 (10:50) 3.89 (12:20) 0 0 0 0 0
17-03-2020 13.7 (14:30) 5.9 (00:00) 9.8 12.78 (11:40) 6.67 (11:40) 0 0 0 0 0
16-03-2020 11.2 (14:10) 1.8 (00:00) 6.5 16.67 (12:00) 8.33 (12:30) 0 0 0 0 0
15-03-2020 16.1 (13:00) -1.6 (-00:0) 7.3 13.61 (15:00) 6.67 (15:00) 0.8 0 0 0 0.8
14-03-2020 19.3 (16:40) -2.2 (-00:0) 8.5 15.28 (18:00) 3.33 (17:00) 0 0 0 0 0
13-03-2020 17.4 (16:10) 4 (04:30) 10.7 8.06 (12:10) 4.17 (12:00) 0 0 0 0 0
12-03-2020 21.7 (13:10) 5.8 (00:00) 13.8 8.06 (20:50) 4.44 (20:50) 0 0 0 0 0
11-03-2020 23 (16:40) 1.5 (00:00) 12.3 10.83 (15:40) 6.94 (00:10) 0 0 0 0 0

Gráficas

Temp. máximas Temp. mínimas Temp. medias Precipitaciones Rachas de viento máximas Velocidades máximas media en intervalos de 10 minutos

Datos horarios

Fecha y hora oficial Temperatura (ºC) Velocidad del viento (km/h) Dirección del viento Racha (km/h) Dirección de racha Precipitación (mm) Presión (hPa) Tendencia (hPa) Humedad (%)
2020-04-09 23:00:00 12.2 12 Sudoeste 20 Sudoeste 0.2 921.5 1.2 89
2020-04-09 22:00:00 12.4 6 Sudoeste 22 Sudoeste 0.4 921.1 1 90
2020-04-09 21:00:00 12.6 10 Sudoeste 19 Sudoeste 0 920.5 0.5 88
2020-04-09 20:00:00 13.2 8 Sudoeste 18 Sur 0 920.3 0 86
2020-04-09 19:00:00 13.2 11 Sudoeste 22 Sudoeste 0.8 920.1 -0.4 86
2020-04-09 18:00:00 13.4 8 Sur 17 Sur 1.8 920 -0.9 86
2020-04-09 17:00:00 13.4 5 Sur 17 Sudeste 1.2 920.3 -1.2 87
2020-04-09 16:00:00 13.1 8 Este 18 Este 1.2 920.5 -1.5 90
2020-04-09 15:00:00 12.8 3 Nordeste 10 Este 0.6 920.9 -1.4 89
2020-04-09 14:00:00 12.4 5 Este 11 Este 0.4 921.5 -0.9 88
2020-04-09 13:00:00 11.7 4 Este 11 Este 0.2 922 -0.1 87
2020-04-09 12:00:00 11 4 Este 10 Nordeste 0.8 922.3 0.5 87
2020-04-09 11:00:00 10.1 3 Nordeste 9 Este 1.4 922.4 1.1 89
2020-04-09 10:00:00 10 4 Este 8 Este 1 922.1 0.9 88
2020-04-09 09:00:00 9.5 0 Calma 5 Este 0.4 921.8 0.5 89
2020-04-09 08:00:00 9 0 Calma 13 Sudeste 0 921.3 -0.2 89
2020-04-09 07:00:00 9 3 Noroeste 5 Noroeste 0 921.2 -0.6 88
2020-04-09 06:00:00 8.8 0 Calma 3 Nordeste 0 921.3 -1 88
2020-04-09 05:00:00 8.7 3 Sudeste 5 Sur 0 921.5 -1.2 87
2020-04-09 04:00:00 8.5 2 Sudeste 5 Norte 0 921.8 -1 87
2020-04-09 03:00:00 8.7 2 Norte 4 Norte 0 922.3 -0.8 87
2020-04-09 02:00:00 8.7 0 Calma 8 Este 0 922.7 -0.4 86
2020-04-09 01:00:00 8.9 0 Calma 9 Sudoeste 0 922.8 0 83
2020-04-09 00:00:00 9.4 2 Oeste 4 Sur 0 923.1 0.6 81
2020-04-08 23:00:00 11.2 2 Noroeste 8 Sur 0 923.1 0.6 74
2020-04-08 22:00:00 12 5 Sur 9 Sur 0 922.8 0.4 71
2020-04-08 21:00:00 14.6 6 Sudoeste 9 Sudoeste 0 922.5 0 61
2020-04-08 20:00:00 17.3 7 Sur 22 Sur 0 922.5 -0.4 50
2020-04-08 19:00:00 20.7 5 Oeste 17 Sudeste 0 922.4 -1.2 32
2020-04-08 18:00:00 19.3 6 Sudoeste 23 Sur 0 922.5 -1.6 41
2020-04-08 17:00:00 18.5 7 Este 18 Este 0 922.9 -1.5 45
2020-04-08 16:00:00 18.2 8 Este 18 Este 0 923.6 -1.4 57
2020-04-08 15:00:00 16.2 9 Este 18 Sudeste 0 924.1 -1.4 64
2020-04-08 14:00:00 17.5 8 Sudeste 21 Sudeste 0 924.4 -1.3 60
2020-04-08 13:00:00 17.2 5 Nordeste 16 Sudeste 0 925 -0.6 62
2020-04-08 12:00:00 14.2 6 Sudeste 19 Nordeste 0 925.5 0.1 73
2020-04-08 11:00:00 12.4 5 Nordeste 11 Este 0 925.7 0.6 79
2020-04-08 10:00:00 10.6 5 Nordeste 12 Nordeste 0 925.6 0.8 86
2020-04-08 09:00:00 8.4 3 Sudeste 6 Sudeste 0 925.4 0.7 92
2020-04-08 08:00:00 6.4 0 Calma 4 Oeste 0 925.1 0.3 90
2020-04-08 07:00:00 7 2 Noroeste 4 Sur 0 924.8 -0.3 89
2020-04-08 06:00:00 8.3 0 Calma 8 Sudeste 0 924.7 -0.8 86
2020-04-08 05:00:00 9.3 2 Norte 5 Norte 0 924.8 -0.8 86
2020-04-08 04:00:00 10.3 3 Sudeste 5 Sudeste 0 925.1 -0.4 85
2020-04-08 03:00:00 10.4 2 Noroeste 5 Noroeste 0 925.5 0.3 83
2020-04-08 02:00:00 10.4 4 Noroeste 8 Norte 0 925.6 0.7 82
2020-04-08 01:00:00 11.2 3 Nordeste 10 Noroeste 0 925.5 1 82
2020-04-08 00:00:00 11.5 7 Oeste 18 Sudoeste 0 925.2 1.5 81
2020-04-07 23:00:00 12.3 10 Sur 15 Sur 0 924.9 1.6 83
2020-04-07 22:00:00 12.5 7 Sur 14 Sur 0 924.5 1.1 77
2020-04-07 21:00:00 14.8 6 Oeste 13 Oeste 0 923.7 0.4 61
2020-04-07 20:00:00 18.6 6 Sudoeste 17 Sudoeste 0 923.3 -0.1 48
2020-04-07 19:00:00 17 7 Oeste 26 Oeste 0 923.4 -0.3 58
2020-04-07 18:00:00 17.9 14 Sudoeste 57 Oeste 0 923.3 -0.9 50
2020-04-07 17:00:00 18.7 10 Sudoeste 24 Oeste 0 923.4 -1.2 51
2020-04-07 16:00:00 18 11 Sudoeste 23 Sudoeste 0 923.7 -1.1 58
2020-04-07 15:00:00 15.9 4 Oeste 17 Sudeste 0 924.2 -0.7 72
2020-04-07 14:00:00 15.3 4 Sur 23 Sudeste 0 924.6 -0.1 70
2020-04-07 13:00:00 14.5 9 Sudeste 18 Sudeste 0 924.8 0.4 73
2020-04-07 12:00:00 11.9 2 Oeste 9 Este 0.2 924.9 0.8 86
2020-04-07 11:00:00 10.9 2 Nordeste 6 Nordeste 0 924.7 1 91
2020-04-07 10:00:00 9.8 2 Este 5 Sur 0.8 924.4 0.8 93
2020-04-07 09:00:00 9.5 2 Norte 15 Noroeste 0 924.1 0.7 93
2020-04-07 08:00:00 9.1 2 Nordeste 6 Nordeste 0 923.7 0.1 93
2020-04-07 07:00:00 9.1 2 Noroeste 4 Noroeste 0 923.6 -0.4 93
2020-04-07 06:00:00 9 2 Norte 5 Noroeste 0 923.4 -0.6 92
2020-04-07 05:00:00 9 0 Calma 6 Nordeste 1.6 923.6 -0.4 92
2020-04-07 04:00:00 9.2 4 Norte 8 Norte 0.6 924 0.1 92
2020-04-07 03:00:00 9 0 Calma 4 Norte 0.4 924 0 91
2020-04-07 02:00:00 9 0 Calma 5 Nordeste 0 924 0.1 91
2020-04-07 01:00:00 9 3 Norte 5 Norte 0.2 923.9 0.3 91
2020-04-07 00:00:00 8.9 0 Calma 5 Sudoeste 0.8 924 1 90
2020-04-06 23:00:00 9.1 0 Calma 4 Sur 0 923.9 1 89
2020-04-06 22:00:00 9.4 2 Sudeste 4 Sur 0 923.6 0.9 87
2020-04-06 21:00:00 9.7 0 Calma 8 Sudoeste 0.2 923 0.3 84
2020-04-06 20:00:00 9.9 4 Sudoeste 14 Oeste 0.4 922.9 0.3 83
2020-04-06 19:00:00 10.2 8 Oeste 23 Sudoeste 0.2 922.7 -0.1 81
2020-04-06 18:00:00 10.5 15 Sudoeste 26 Sudoeste 0 922.7 0.3 77
2020-04-06 17:00:00 10.9 11 Sur 31 Sudoeste 0 922.6 0.5 78
2020-04-06 16:00:00 11.6 18 Sudoeste 29 Sudoeste 0 922.8 1 71
2020-04-06 15:00:00 12.8 12 Oeste 28 Oeste 0 922.4 1 68
2020-04-06 14:00:00 12.8 14 Sudoeste 29 Sur 0 922.1 1.2 71
2020-04-06 13:00:00 12 15 Sudoeste 28 Sur 0 921.8 1.3 72
2020-04-06 12:00:00 11.2 18 Sudoeste 33 Sudoeste 0 921.4 1.4 76
2020-04-06 11:00:00 9.9 21 Sudoeste 33 Sudoeste 0 920.9 2 83
2020-04-06 10:00:00 9.4 13 Sudoeste -- -- -- 920.5 2.4 85
2020-04-06 09:00:00 9.3 17 Sudoeste 35 Sudoeste 0 920 2.2 88
2020-04-06 08:00:00 9.6 14 Sudoeste 28 Sudoeste 0 918.9 1.4 89
2020-04-06 07:00:00 10 16 Sudoeste 26 Sudoeste 0.2 918.1 0.7 91
2020-04-06 06:00:00 9.8 4 Oeste 12 Noroeste 0 917.8 0.4 92
2020-04-06 05:00:00 9.9 5 Oeste 9 Noroeste 1.6 917.5 -0.3 92
2020-04-06 04:00:00 10 3 Noroeste 7 Noroeste 1.2 917.4 -0.4 92
2020-04-06 03:00:00 10 0 Calma 6 Noroeste 0.2 917.4 -0.1 91
2020-04-06 02:00:00 10 2 Noroeste 5 Sudoeste 0 917.8 0.2 90
2020-04-06 01:00:00 9.9 2 Sur 7 Sudoeste 0 917.8 0.8 90
2020-04-06 00:00:00 10 6 Sudoeste 10 Sudoeste 0 917.5 0.7 88
2020-04-05 23:00:00 10.4 6 Sudoeste 26 Sur 0 917.6 1 87
2020-04-05 22:00:00 10.5 14 Sur 31 Sur 0 917 0.3 87
2020-04-05 21:00:00 10.6 8 Sur 17 Sudeste 1.2 916.8 0.6 88
2020-04-05 20:00:00 10.2 6 Sur 25 Sur 3.4 916.6 0.9 88
2020-04-05 19:00:00 10.5 9 Sudoeste 31 Sudoeste 6.2 916.7 0.7 88
2020-04-05 18:00:00 10.7 17 Sur 40 Sudoeste 3 916.2 -0.2 87
2020-04-05 17:00:00 10.8 12 Sur 41 Sur 3.8 915.7 -1 87
2020-04-05 16:00:00 12.3 19 Sur 35 Sur 0 916 -1 78
2020-04-05 15:00:00 11.2 18 Sur 35 Sur 0.4 916.4 -0.6 82
2020-04-05 14:00:00 11.1 17 Sur 43 Sur 0.6 916.7 0 83
2020-04-05 13:00:00 11.2 17 Sur 39 Sur 0.4 917 0.6 78
2020-04-05 12:00:00 10.8 18 Sur 37 Sur 0 917 0.5 77
2020-04-05 11:00:00 10.6 17 Sur 38 Sur 0 916.7 0.7 77
2020-04-05 10:00:00 9.7 18 Sur 40 Sur 0.2 916.4 0.8 80
2020-04-05 09:00:00 9.4 15 Sur 38 Sur 0.4 916.5 0.9 81
2020-04-05 08:00:00 9 11 Sur 30 Sur 0 916 0.3 79
2020-04-05 07:00:00 9 9 Sur 21 Sur 0 915.6 0 77
2020-04-05 06:00:00 9.2 11 Sur 31 Sur 0 915.6 -0.3 77
2020-04-05 05:00:00 10 11 Sur 32 Sur 0 915.7 -0.4 70
2020-04-05 04:00:00 10.4 11 Sur 31 Sur 0 915.6 -0.4 67
2020-04-05 03:00:00 10.5 13 Sur 35 Sudoeste 0 915.9 0 65
2020-04-05 02:00:00 11 19 Sur 42 Sur 0 916.1 0 62
2020-04-05 01:00:00 11.4 20 Sur 44 Sudoeste 0 916 0.2 58
2020-04-05 00:00:00 11.6 14 Sur 32 Sudoeste 0 915.9 0.8 55
2020-04-04 23:00:00 12 14 Sudoeste 35 Sur 0 916.1 1.2 50
2020-04-04 22:00:00 12.6 15 Sur 38 Sudoeste 0 915.8 1.3 45
2020-04-04 21:00:00 13.5 16 Sur 31 Sudoeste 0 915.1 0.5 43
2020-04-04 20:00:00 14.5 12 Sur 31 Sur 0 914.9 -0.2 42
2020-04-04 19:00:00 15.6 12 Sur 33 Sur 0 914.5 -1.1 41
2020-04-04 18:00:00 17.1 10 Sur 35 Sudoeste 0 914.6 -1.3 36
2020-04-04 17:00:00 15.9 13 Sudeste 27 Sudeste 0 915.1 -1.3 38
2020-04-04 16:00:00 16 12 Sur 35 Sur 0 915.6 -1.4 38
2020-04-04 15:00:00 16 10 Sur 26 Nordeste 0 915.9 -1.8 36
2020-04-04 14:00:00 15.4 8 Este 22 Este 0 916.4 -1.6 45
2020-04-04 13:00:00 13.7 9 Nordeste 18 Este 0 917 -0.9 49
2020-04-04 12:00:00 11.5 7 Nordeste 18 Nordeste 0 917.7 -0.1 56
2020-04-04 11:00:00 8.5 9 Este 68 Este 0 918 0.4 67
2020-04-04 10:00:00 6 3 Este 7 Este 0 917.9 0.4 75
2020-04-04 09:00:00 0.7 0 Calma 4 Sur 0 917.8 0.3 90
2020-04-04 08:00:00 -1.9 4 Sur 5 Sur 0 917.6 -0.1 90
2020-04-04 07:00:00 -1.2 0 Calma 4 Norte 0 917.5 -0.5 90
2020-04-04 06:00:00 -0.7 2 Sur 5 Sur 0 917.5 -0.9 91
2020-04-04 05:00:00 -0.3 2 Sur 5 Sur 0 917.7 -0.7 90
2020-04-04 04:00:00 0.7 3 Sudeste 5 Sur 0 918 -0.5 89
2020-04-04 03:00:00 1.2 0 Calma 5 Sudoeste 0 918.4 -0.3 87
2020-04-04 02:00:00 2.1 4 Sudoeste 6 Sudoeste 0 918.4 0 86
2020-04-04 01:00:00 4 2 Sudoeste 4 Sur 0 918.5 0.4 79
2020-04-04 00:00:00 5.8 4 Oeste 11 Noroeste 0 918.7 1.1 74
2020-04-03 23:00:00 7.1 4 Norte 18 Sur 0 918.4 0.8 67
2020-04-03 22:00:00 8.9 4 Sur 14 Sur 0 918.1 0.8 59
2020-04-03 21:00:00 10.8 6 Sur 15 Sur 0 917.6 0 56
2020-04-03 20:00:00 14.7 7 Sur 18 Sur 0 917.6 -0.3 39
2020-04-03 19:00:00 16.7 3 Oeste 17 Oeste 0 917.3 -1 35
2020-04-03 18:00:00 15.7 7 Este 19 Sudeste 0 917.6 -1.4 42
2020-04-03 17:00:00 14.6 5 Este 15 Sudeste 0 917.9 -1.7 42
2020-04-03 16:00:00 14.4 6 Sur 21 Este 0 918.3 -1.9 46
2020-04-03 15:00:00 14.4 6 Este 19 Este 0 919 -1.8 47
2020-04-03 14:00:00 12.9 6 Nordeste 14 Este 0 919.6 -1.1 51
2020-04-03 13:00:00 11.7 4 Oeste 15 Noroeste 0 920.2 -0.4 54
2020-04-03 12:00:00 9.6 7 Noroeste 13 Noroeste 0 920.8 0.4 64
2020-04-03 11:00:00 7.6 4 Oeste 11 Norte 0 920.7 0.9 63
2020-04-03 10:00:00 5.8 6 Norte 13 Este 0 920.6 0.8 71
2020-04-03 09:00:00 2.2 5 Sudeste 6 Sudeste 0 920.4 0.8 85
2020-04-03 08:00:00 2.2 0 Calma 4 Sudeste 0 919.8 0 86
2020-04-03 07:00:00 3.2 0 Calma 8 Nordeste 0 919.8 0.1 87
2020-04-03 06:00:00 3.7 2 Oeste 8 Este 0 919.6 -0.2 86
2020-04-03 05:00:00 4.1 3 Norte 5 Nordeste 0 919.8 0 86
2020-04-03 04:00:00 4.1 2 Nordeste 5 Norte 0 919.7 -0.1 85
2020-04-03 03:00:00 4.3 0 Calma 9 Este 0 919.8 0.1 81
2020-04-03 02:00:00 5.1 4 Este 13 Sudeste 0 919.8 0.4 77
2020-04-03 01:00:00 6.8 3 Este 9 Este 0 919.8 1.3 79
2020-04-03 00:00:00 7.9 4 Sudeste 8 Noroeste 0 919.7 1.8 80
2020-04-02 23:00:00 8.4 3 Norte 10 Norte 0 919.4 2.1 78
2020-04-02 22:00:00 9.3 0 Calma 8 Sur 0 918.5 1.6 70
2020-04-02 21:00:00 10 4 Sur 16 Sudeste 0 917.9 1 70
2020-04-02 20:00:00 12.8 7 Este 17 Sudeste 0 917.3 0.5 55
2020-04-02 19:00:00 14.4 9 Este 15 Este 0 916.9 -0.1 45
2020-04-02 18:00:00 13.6 11 Este 29 Este 0 916.9 -0.6 51
2020-04-02 17:00:00 14.1 13 Este 27 Este 0 916.8 -0.6 50
2020-04-02 16:00:00 12.9 12 Este 26 Nordeste 0.2 917 -0.1 58
2020-04-02 15:00:00 11.1 8 Nordeste 27 Norte 0 917.5 0.3 72
2020-04-02 14:00:00 8.9 11 Norte 31 Nordeste 1 917.4 0.4 80
2020-04-02 13:00:00 10.9 13 Nordeste 23 Nordeste 0 917.1 0.7 64
2020-04-02 12:00:00 9.7 4 Nordeste 10 Nordeste 0 917.2 1.4 76
2020-04-02 11:00:00 7.6 2 Este 8 Sudeste 0.2 917 1.7 85
2020-04-02 10:00:00 6.4 3 Sudeste 9 Sudeste 0 916.4 1.4 90
2020-04-02 09:00:00 5.8 3 Nordeste 18 Norte 0 915.8 0.9 92
2020-04-02 08:00:00 5.5 6 Nordeste 13 Norte 0.2 915.3 0.5 92
2020-04-02 07:00:00 5.5 4 Norte 12 Nordeste 0.6 915 0.1 91
2020-04-02 06:00:00 5.5 5 Norte 10 Nordeste 0.6 914.9 -0.5 90
2020-04-02 05:00:00 5.6 4 Nordeste 7 Este 0.2 914.8 -0.7 89
2020-04-02 04:00:00 5.7 2 Este 9 Nordeste 0.6 914.9 -0.7 89
2020-04-02 03:00:00 6 5 Este 10 Este 0.2 915.4 -0.1 89
2020-04-02 02:00:00 6.2 4 Nordeste 10 Nordeste 0.2 915.5 0.3 89
2020-04-02 01:00:00 6.2 3 Nordeste 11 Este 0 915.6 1.2 88
2020-04-02 00:00:00 6.1 2 Sudeste 11 Norte 0 915.5 1.5 84
2020-04-01 23:00:00 6.3 3 Sudeste 8 Sudoeste 0 915.2 1.5 83
2020-04-01 22:00:00 6.9 6 Sudoeste 8 Sudoeste 0 914.4 0.7 80
2020-04-01 21:00:00 8.1 0 Calma 13 Norte 0 914 0.3 75
2020-04-01 20:00:00 9.8 9 Norte 15 Norte 0 913.7 0.2 69
2020-04-01 19:00:00 10.5 7 Noroeste 19 Noroeste 0 913.7 -0.1 70
2020-04-01 18:00:00 8.8 10 Norte 29 Noroeste 0 913.7 0 82
2020-04-01 17:00:00 6.9 17 Oeste 26 Oeste 0 913.5 -0.2 88
2020-04-01 16:00:00 6.5 10 Oeste 18 Oeste 0.4 913.8 -0.2 87
2020-04-01 15:00:00 -- 13 Sudoeste 28 Sudoeste 6.4 913.7 -0.6 84
2020-04-01 14:00:00 8.5 10 Sur 30 Sur 0.2 913.7 -0.6 74
2020-04-01 13:00:00 8.7 6 Este 12 Sudeste 0 914 0.1 73
2020-04-01 12:00:00 7.3 5 Este 9 Este 0 914.3 1 81
2020-04-01 11:00:00 6.1 4 Este 16 Este 0 914.3 1.4 88
2020-04-01 10:00:00 5.6 5 Nordeste 14 Noroeste 0 913.9 1.6 91
2020-04-01 09:00:00 4.9 2 Oeste 6 Sudoeste 0 913.3 1.2 92
2020-04-01 08:00:00 4.3 4 Este 8 Nordeste 0 912.9 0.9 92
2020-04-01 07:00:00 4.5 3 Sudoeste 6 Sudoeste 0 912.3 0.5 91
2020-04-01 06:00:00 5.1 4 Noroeste 8 Norte 0.2 912.1 0.4 91
2020-04-01 05:00:00 5.3 0 Calma 4 Norte 0 912 0.8 91
2020-04-01 04:00:00 5.3 0 Calma 8 Este 0 911.8 0.8 91
2020-04-01 03:00:00 5.4 5 Este 18 Este 1.4 911.7 0.7 91
2020-04-01 02:00:00 5.1 9 Este 21 Este 0.8 911.2 0.5 91
2020-04-01 01:00:00 -- 13 Este 29 Este 1 911 0.8 91
2020-04-01 00:00:00 5.4 13 Este 28 Nordeste 0.8 911 1.3 89
2020-03-31 23:00:00 6 11 Este 27 Este 0 910.7 1.2 84
2020-03-31 22:00:00 6 11 Este 22 Este 0 910.2 1.1 83
2020-03-31 21:00:00 5.9 5 Nordeste 14 Nordeste 0 909.7 0.8 85
2020-03-31 20:00:00 5.5 5 Nordeste 23 Nordeste 0 909.5 0.7 84
2020-03-31 19:00:00 5.5 12 Este 31 Nordeste 0 909.1 0.2 84
2020-03-31 18:00:00 5.8 12 Este 31 Este 0.6 908.9 -0.3 83
2020-03-31 17:00:00 5.9 13 Este 26 Nordeste 0 908.8 -0.5 74
2020-03-31 16:00:00 5.3 9 Nordeste 37 Este 0 908.9 -0.4 77
2020-03-31 15:00:00 4.7 18 Este 37 Este 0 909.2 -0.2 77
2020-03-31 14:00:00 5.4 21 Este 41 Nordeste 0 909.3 -0.5 63
2020-03-31 13:00:00 4 21 Nordeste 44 Este 0 909.3 -0.7 62
2020-03-31 12:00:00 3.3 17 Nordeste 45 Nordeste 0 909.4 -0.8 60
2020-03-31 11:00:00 2 15 Nordeste 47 Nordeste 0 909.8 -0.3 62
2020-03-31 10:00:00 0.9 13 Nordeste 40 Este 0 910 -0.4 64
2020-03-31 09:00:00 0.1 14 Nordeste 34 Nordeste 0 910.2 -0.5 66
2020-03-31 08:00:00 -0.1 13 Nordeste 34 Nordeste 0 910.1 -1.3 65
2020-03-31 07:00:00 -0.4 13 Nordeste 31 Nordeste 0 910.4 -1.7 68
2020-03-31 06:00:00 -0.5 12 Nordeste 36 Nordeste 0 910.7 -2.4 72
2020-03-31 05:00:00 -0.3 9 Nordeste 27 Nordeste 0 911.4 -2.2 73
2020-03-31 04:00:00 -0.3 10 Nordeste 27 Nordeste 0 912.1 -2.5 72
2020-03-31 03:00:00 -0.3 13 Nordeste 30 Nordeste 0 913.1 -1.9 71
2020-03-31 02:00:00 -0.1 10 Nordeste 27 Nordeste 0 913.6 -1.6 69
2020-03-31 01:00:00 0.4 12 Nordeste 39 Este 0 914.6 -0.7 65
2020-03-31 00:00:00 1 15 Nordeste 42 Este 0 915 0 62
2020-03-30 23:00:00 1.8 15 Nordeste 38 Este 0 915.2 0.6 57
2020-03-30 22:00:00 2.6 21 Este 41 Este 0 915.3 0.5 53
2020-03-30 21:00:00 3.6 14 Este 33 Nordeste 0 915 -0.2 47
2020-03-30 20:00:00 4.1 17 Este 41 Sudeste 0 914.6 -0.8 47
2020-03-30 19:00:00 5 14 Este 39 Este 0 914.8 -1.7 45
2020-03-30 18:00:00 5.7 14 Este 39 Este 0 915.2 -2.1 46
2020-03-30 17:00:00 5.7 16 Este 31 Nordeste 0 915.4 -2.6 45
2020-03-30 16:00:00 4.6 14 Sudeste 33 Sudeste 0 916.5 -2 54
2020-03-30 15:00:00 4.6 15 Este 30 Este 0 917.3 -1.9 55
2020-03-30 14:00:00 3.6 16 Este 30 Este 0 918 -1.2 64
2020-03-30 13:00:00 2.6 14 Este 30 Este 0 918.5 -0.8 66
2020-03-30 12:00:00 2.1 12 Este 30 Este 0 919.2 -0.3 74
2020-03-30 11:00:00 1.7 14 Este 25 Sudeste 0 919.2 0 79
2020-03-30 10:00:00 0.5 13 Este 31 Este 0 919.3 0.2 86
2020-03-30 09:00:00 0.1 11 Este 40 Sudeste 0.2 919.5 0.2 88
2020-03-30 08:00:00 0.8 10 Este 31 Sudeste 0 919.2 -0.2 88
2020-03-30 07:00:00 1.4 17 Este 31 Este 0 919.1 -0.4 86
2020-03-30 06:00:00 2.2 15 Este 32 Nordeste 0 919.3 -0.5 84
2020-03-30 05:00:00 3.6 13 Este 27 Este 0 919.4 -0.6 75
2020-03-30 04:00:00 4.4 8 Este 26 Este 0 919.5 -0.9 76
2020-03-30 03:00:00 4.9 8 Este 19 Este 0 919.8 -0.6 77
2020-03-30 02:00:00 5.2 9 Este 21 Este 0 920 -0.3 77
2020-03-30 01:00:00 5.9 8 Este 22 Este 0 920.4 0.4 74
2020-03-30 00:00:00 6.8 9 Este 24 Este 0 920.4 1.8 71
2020-03-29 23:00:00 7.8 14 Este 33 Este 0 920.3 1.9 65
2020-03-29 22:00:00 10 18 Este 37 Este 0 920 1.8 54
2020-03-29 21:00:00 12.4 8 Sudeste 14 Sudoeste 0 918.6 0.4 48
2020-03-29 20:00:00 13.4 5 Sur 30 Oeste 0 918.4 -0.3 46
2020-03-29 19:00:00 14.6 7 Sur 15 Sudeste 0 918.2 -1.1 40
2020-03-29 18:00:00 16.8 6 Sudeste 12 Sudeste 0 918.2 -1.8 30
2020-03-29 17:00:00 16.8 3 Noroeste 15 Norte 0 918.7 -2 30
2020-03-29 16:00:00 17.6 6 Norte 18 Noroeste 0 919.3 -2 34
2020-03-29 15:00:00 16.4 7 Norte 19 Norte 0 920 -1.9 32
2020-03-29 14:00:00 16 4 Nordeste 12 Norte 0 920.7 -1.4 37
2020-03-29 13:00:00 13.6 5 Nordeste 15 Nordeste 0 921.3 -0.7 41
2020-03-29 12:00:00 11 5 Este 12 Este 0 921.9 0 49
2020-03-29 11:00:00 8 3 Nordeste 6 Nordeste 0 922.1 0.7 55
2020-03-29 10:00:00 4.8 4 Norte 6 Norte 0 922 0.7 67
2020-03-29 09:00:00 -0.4 0 Calma 4 Sudeste 0 921.9 0.7 81
2020-03-29 08:00:00 -1.5 0 Calma 6 Sur 0 921.4 0.1 83
2020-03-29 07:00:00 -1.7 2 Sur 6 Sur 0 921.3 -0.3 83
2020-03-29 06:00:00 -1.2 4 Sur 10 Sudoeste 0 921.2 -0.2 79
2020-03-29 05:00:00 0.4 7 Sur 11 Sudoeste 0 921.3 -0.1 76
2020-03-29 03:00:00 1.3 0 Calma 8 Sur 0 921.4 0.1 72
2020-03-29 01:00:00 2.2 3 Sur 6 Sur 0 921.4 0.2 69
2020-03-29 00:00:00 3.6 5 Sur 8 Sur 0 921.4 0.6 61
2020-03-28 23:00:00 4.1 3 Sur 6 Sudeste 0 921.3 1.2 60
2020-03-28 22:00:00 6.8 0 Calma 12 Sudoeste 0 921.2 1.4 47
2020-03-28 21:00:00 8.7 7 Sur 14 Sur 0 920.8 1.5 39
2020-03-28 20:00:00 10.7 8 Sur 15 Oeste 0 920.1 1 36
2020-03-28 19:00:00 13.6 6 Sur 18 Sudeste 0 919.8 0.6 30
2020-03-28 18:00:00 14.6 6 Sur 16 Sur 0 919.3 -0.3 26
2020-03-28 17:00:00 15.1 5 Nordeste 19 Este 0 919.1 -0.9 25
2020-03-28 16:00:00 15.8 9 Nordeste 24 Este 0 919.2 -1.1 21
2020-03-28 15:00:00 15.8 9 Nordeste 20 Este 0 919.6 -1.1 23
2020-03-28 14:00:00 14.8 9 Este 23 Este 0 920 -0.9 28
2020-03-28 13:00:00 14 10 Nordeste 26 Sudeste 0 920.3 -0.3 33
2020-03-28 12:00:00 12.3 8 Este 18 Sudeste 0 920.7 0.3 33
2020-03-28 11:00:00 10 7 Este 20 Este 0 920.9 0.9 46
2020-03-28 10:00:00 7.1 7 Este 16 Este 0 920.6 1.1 53
2020-03-28 09:00:00 1.8 0 Calma 5 Sur 0 920.4 1.5 78
2020-03-28 08:00:00 -2.2 4 Sur 5 Sur 0 920 1.3 84
2020-03-28 07:00:00 -3.6 0 Calma 2 Sudeste 0 919.5 1.2 85
2020-03-28 06:00:00 -3 0 Calma 5 Sudoeste 0 918.9 0.5 85
2020-03-28 05:00:00 -3.2 0 Calma 4 Sur 0 918.7 0.3 84
2020-03-28 04:00:00 -2.7 2 Sur 4 Sudeste 0 918.3 0.3 83
2020-03-28 03:00:00 -2.2 3 Sur 6 Sur 0 918.4 0.7 82
2020-03-28 02:00:00 -1.8 0 Calma 4 Sur 0 918.4 1.2 80
2020-03-28 01:00:00 -1.2 2 Sur 5 Sudoeste 0 918 1.2 77
2020-03-28 00:00:00 -0.7 4 Sur 7 Sudeste 0 917.7 1.7 76
2020-03-27 23:00:00 0.2 3 Sur 5 Sur 0 917.2 2 72
2020-03-27 22:00:00 2.5 2 Sur 10 Sudoeste 0 916.8 2 62
2020-03-27 21:00:00 4.9 6 Sur 9 Sur 0 916 1.6 52
2020-03-27 20:00:00 7.6 4 Sur 17 Este 0 915.2 0.9 41
2020-03-27 19:00:00 10.7 8 Este 25 Este 0 914.8 0.3 30
2020-03-27 18:00:00 11.7 10 Este 27 Sudeste 0 914.4 -0.4 32
2020-03-27 17:00:00 11.2 13 Sudeste 42 Este 0 914.3 -0.8 31
2020-03-27 16:00:00 10.5 14 Este 34 Sudeste 0 914.5 -0.7 31
2020-03-27 15:00:00 10.8 14 Este 37 Este 0 914.8 -1 30
2020-03-27 14:00:00 9.5 18 Este 40 Nordeste 0 915.1 -1.1 32
2020-03-27 13:00:00 7.9 17 Este 38 Nordeste 0 915.2 -0.4 41
2020-03-27 12:00:00 7.4 17 Este 36 Este 0 915.8 0.5 43
2020-03-27 11:00:00 5.1 15 Este 37 Este 0 916.2 1.2 54
2020-03-27 10:00:00 3.8 16 Nordeste 33 Nordeste 0 915.6 0.9 59
2020-03-27 09:00:00 1.3 3 Este 12 Nordeste 0 915.3 0.8 76
2020-03-27 08:00:00 -2.1 3 Nordeste 9 Norte 0 915 0.7 87
2020-03-27 07:00:00 -2.4 5 Noroeste 7 Noroeste 0 914.7 0.6 89
2020-03-27 06:00:00 -2.3 3 Noroeste 7 Norte 0 914.5 0.4 86
2020-03-27 05:00:00 -1.6 4 Norte 7 Norte 0 914.3 0 85
2020-03-27 04:00:00 -0.9 3 Nordeste 8 Nordeste 0 914.1 -0.2 84
2020-03-27 03:00:00 0 3 Norte 9 Este 0 914.1 -0.1 82
2020-03-27 02:00:00 1.4 2 Este 15 Este 0 914.3 0.5 78
2020-03-27 01:00:00 2.5 6 Nordeste 18 Este 0 914.3 0.5 74
2020-03-27 00:00:00 3.4 7 Este 14 Este 0 914.2 1 68
2020-03-26 23:00:00 5.3 9 Este 28 Nordeste 0 913.8 1.6 60
2020-03-26 22:00:00 6.8 9 Nordeste 24 Nordeste 0 913.8 2.5 49
2020-03-26 21:00:00 8.7 10 Nordeste 29 Nordeste 0 913.2 2.2 39
2020-03-26 20:00:00 11.6 8 Nordeste 30 Nordeste 0 912.2 0.9 26
2020-03-26 19:00:00 16.5 9 Este 19 Este 0 911.3 -0.4 29
2020-03-26 18:00:00 17.9 5 Sur 26 Sudeste 0 911 -1.2 25
2020-03-26 17:00:00 18 5 Nordeste 25 Este 0 911.3 -1.5 23
2020-03-26 16:00:00 18.1 7 Nordeste 20 Nordeste 0 911.7 -1.7 21
2020-03-26 15:00:00 17.5 9 Este 22 Este 0 912.2 -1.8 21
2020-03-26 14:00:00 16.7 7 Este 18 Nordeste 0 912.8 -1.8 23
2020-03-26 13:00:00 15.6 7 Norte 18 Norte 0 913.4 -1.8 30
2020-03-26 12:00:00 13.8 5 Nordeste 13 Norte 0 914 -1.3 36
2020-03-26 11:00:00 10.7 4 Norte 9 Norte 0 914.6 -1 51
2020-03-26 10:00:00 6.7 4 Norte 12 Norte 0 915.2 0 58
2020-03-26 09:00:00 3.3 4 Norte 8 Nordeste 0 915.3 0.4 69
2020-03-26 08:00:00 -1.2 3 Noroeste 7 Sudeste 0 915.6 0.6 81
2020-03-26 07:00:00 -2.7 3 Este 5 Norte 0 915.2 0.2 80
2020-03-26 06:00:00 -1.3 0 Calma 6 Sudeste 0 914.9 -0.5 79
2020-03-26 05:00:00 -0.1 2 Este 14 Sur 0 915 -0.9 71
2020-03-26 04:00:00 2.5 8 Sur 18 Sur 0 915 -1 61
2020-03-26 03:00:00 1 5 Sur 8 Sur 0 915.4 -1 77
2020-03-26 02:00:00 2.3 4 Sudoeste 9 Sudoeste 0 915.9 -0.5 72
2020-03-26 01:00:00 3.1 5 Sur 10 Sur 0 916 -0.4 73
2020-03-26 00:00:00 4.8 5 Sudeste 12 Sur 0 916.4 0.1 67
2020-03-25 23:00:00 6.1 7 Sur 10 Sur 0 916.4 0.6 61
2020-03-25 22:00:00 9.1 2 Sudeste 7 Sudoeste 0 916.4 0.9 48
2020-03-25 21:00:00 11.5 3 Sudeste 19 Norte 0 916.3 1.4 35
2020-03-25 20:00:00 14.1 7 Norte 62 Noroeste 0 915.8 0.7 32
2020-03-25 19:00:00 17.5 12 Nordeste 31 Norte 0 915.5 0 29
2020-03-25 18:00:00 18.3 14 Norte 30 Norte 0 914.9 -1 31
2020-03-25 17:00:00 20.5 9 Noroeste 17 Noroeste 0 915.1 -1.5 21
2020-03-25 16:00:00 20.4 6 Noroeste 19 Norte 0 915.5 -1.7 22
2020-03-25 15:00:00 20.4 6 Nordeste 21 Norte 0 915.9 -1.8 25
2020-03-25 14:00:00 19.7 5 Norte 24 Norte 0 916.6 -1.4 26
2020-03-25 13:00:00 18.3 14 Noroeste 32 Norte 0 917.2 -0.9 29
2020-03-25 12:00:00 17.8 13 Norte 30 Noroeste 0 917.7 -0.7 37
2020-03-25 11:00:00 14.6 13 Noroeste 29 Oeste 0 918 -0.5 47
2020-03-25 10:00:00 11.7 0 Calma 72 Noroeste 0 918.1 -0.5 70
2020-03-25 09:00:00 6.5 3 Nordeste 12 Noroeste 0 918.4 -0.1 84
2020-03-25 08:00:00 2.5 4 Sudeste 8 Sur 0 918.5 -0.1 93
2020-03-25 07:00:00 0.1 0 Calma 4 Sudeste 0 918.6 -0.1 91
2020-03-25 06:00:00 0.8 0 Calma 4 Nordeste 0 918.5 -0.5 91
2020-03-25 05:00:00 0.8 0 Calma 4 Oeste 0 918.6 -0.6 89
2020-03-25 04:00:00 1.1 2 Sudeste 4 Sur 0 918.7 -0.6 88
2020-03-25 03:00:00 1.6 3 Noroeste 10 Sur 0 919 -0.2 88
2020-03-25 02:00:00 1.9 3 Sur 5 Sur 0 919.2 0 88
2020-03-25 01:00:00 3 0 Calma 4 Sudeste 0 919.3 0.4 84
2020-03-25 00:00:00 3.8 3 Sur 11 Sur 0 919.2 0.6 80
2020-03-24 23:00:00 4.3 5 Sur 9 Sur 0 919.2 0.8 82
2020-03-24 22:00:00 6.3 0 Calma 9 Sudoeste 0 918.9 0.7 72
2020-03-24 21:00:00 8.9 6 Sur 10 Sudoeste 0 918.6 0.7 63
2020-03-24 20:00:00 11.2 3 Sur 15 Este 0 918.4 0.7 55
2020-03-24 19:00:00 14.5 8 Este 28 Este 0 918.2 0.2 43
2020-03-24 18:00:00 15.5 10 Nordeste 30 Este 0 917.9 -0.6 37
2020-03-24 17:00:00 15.9 10 Nordeste 31 Nordeste 0 917.7 -1.2 41
2020-03-24 16:00:00 15.5 12 Este 38 Nordeste 0 918 -1.3 40
2020-03-24 15:00:00 14.6 13 Este 31 Nordeste 0 918.5 -1.3 46
2020-03-24 14:00:00 14.9 16 Este 32 Este 0 918.9 -1.2 42
2020-03-24 13:00:00 13.1 13 Nordeste 37 Este 0 919.3 -1 53
2020-03-24 12:00:00 13 16 Este 31 Nordeste 0 919.8 -0.4 57
2020-03-24 11:00:00 10.1 14 Este 29 Este 0 920.1 0.1 69
2020-03-24 10:00:00 8.2 9 Nordeste 22 Nordeste 0 920.3 0.7 78
2020-03-24 09:00:00 6.8 8 Nordeste 19 Nordeste 0 920.2 0.7 85
2020-03-24 08:00:00 5.5 3 Nordeste 9 Norte 0 920 0.7 90
2020-03-24 07:00:00 5 3 Nordeste 7 Norte 0 919.6 0.3 90
2020-03-24 06:00:00 3.8 2 Nordeste 4 Nordeste 0 919.5 0.1 91
2020-03-24 05:00:00 3 0 Calma 4 Sur 0 919.3 -0.1 92
2020-03-24 04:00:00 1.4 2 Sudoeste 5 Sur 0 919.3 0 90
2020-03-24 03:00:00 1.9 2 Sudoeste 5 Sudeste 0 919.4 0.3 87
2020-03-24 02:00:00 3 0 Calma 6 Norte 0 919.4 0.8 87
2020-03-24 01:00:00 4.4 0 Calma 5 Nordeste 0 919.3 1 81
2020-03-24 00:00:00 5.9 3 Norte 10 Este 0 919.1 1 79
2020-03-23 23:00:00 7.1 3 Sudeste 6 Sur 0 918.6 1.1 75
2020-03-23 22:00:00 9.1 3 Sudeste 10 Sudeste 0 918.3 1.1 70
2020-03-23 21:00:00 9.8 5 Sur 8 Sudeste 0 918.1 1 66
2020-03-23 20:00:00 11.5 3 Sudeste 18 Nordeste 0 917.5 0.5 58
2020-03-23 19:00:00 13.5 9 Nordeste 20 Nordeste 0 917.2 -0.1 48
2020-03-23 18:00:00 13.7 13 Este 26 Este 0 917.1 -0.5 47
2020-03-23 17:00:00 14.6 15 Este 31 Este 0 917 -1 45
2020-03-23 16:00:00 14.2 15 Este 31 Nordeste 0 917.3 -1.4 45
2020-03-23 15:00:00 14.2 14 Este 33 Este 0 917.6 -1.4 49
2020-03-23 14:00:00 13.5 12 Nordeste 30 Este 0 918 -1.2 56
2020-03-23 13:00:00 12.4 17 Nordeste 34 Este 0 918.7 -0.8 57
2020-03-23 12:00:00 11.6 14 Nordeste 34 Nordeste 0 919 0 60
2020-03-23 11:00:00 10.9 11 Este 27 Este 0 919.2 0.5 62
2020-03-23 10:00:00 8.8 9 Este 19 Este 0 919.5 1.2 70
2020-03-23 09:00:00 7.2 2 Nordeste 8 Nordeste 0 919 1.1 75
2020-03-23 08:00:00 5.4 3 Norte 6 Nordeste 0 918.7 1.1 81
2020-03-23 07:00:00 5.9 2 Este 6 Norte 0 918.3 0.8 79
2020-03-23 06:00:00 5.9 0 Calma 4 Este 0 917.9 0.4 83
2020-03-23 05:00:00 5.4 0 Calma 5 Nordeste 0 917.6 0.1 88
2020-03-23 04:00:00 4.2 2 Nordeste 4 Nordeste 0 917.5 0 90
2020-03-23 03:00:00 3.8 0 Calma 4 Sur 0 917.5 0 89
2020-03-23 02:00:00 3.8 2 Sudoeste 6 Noroeste 0 917.5 0.2 89
2020-03-23 01:00:00 4.5 0 Calma 4 Noroeste 0 917.5 0.8 85
2020-03-23 00:00:00 5.7 2 Sur 5 Sur 0 917.5 1.3 83
2020-03-22 23:00:00 7.6 2 Sudoeste 14 Sudoeste 0 917.3 2 79
2020-03-22 22:00:00 8.7 6 Sur 15 Este 0 916.7 1.9 80
2020-03-22 21:00:00 9.3 8 Sudeste 17 Este 0 916.2 2 75
2020-03-22 20:00:00 10.6 4 Sur 21 Noroeste 0 915.3 1.4 65
2020-03-22 19:00:00 12.6 3 Oeste 20 Nordeste 0 914.8 0.8 59
2020-03-22 18:00:00 14.1 12 Nordeste 28 Nordeste 0 914.2 -0.2 54
2020-03-22 17:00:00 16 12 Este 26 Sudeste 0 913.9 -1 39
2020-03-22 16:00:00 15.9 10 Este 26 Este 0 914 -1.4 45
2020-03-22 15:00:00 14.7 8 Este 21 Este 0 914.4 -1.2 54
2020-03-22 14:00:00 14.9 9 Este 24 Nordeste 0 914.9 -0.6 53
2020-03-22 13:00:00 12.4 10 Este 24 Este 0 915.4 0 66
2020-03-22 12:00:00 11.8 9 Este 17 Este 0 915.6 0.7 69
2020-03-22 11:00:00 11.8 9 Este 15 Este 0 915.5 0.9 70
2020-03-22 10:00:00 9 4 Nordeste 12 Norte 0 915.4 1.1 85
2020-03-22 09:00:00 7.2 2 Este 8 Sudeste 0 914.9 1.1 92
2020-03-22 08:00:00 5.3 0 Calma 6 Sudeste 0 914.6 0.9 92
2020-03-22 07:00:00 4.6 3 Sur 5 Sur 0 914.3 0.5 91
2020-03-22 06:00:00 5.6 3 Oeste 6 Sudoeste 0 913.8 -0.2 89
2020-03-22 05:00:00 6.3 4 Sudoeste 6 Sudoeste 0.2 913.7 -0.2 91
2020-03-22 04:00:00 6.3 3 Sur 7 Sur 0.2 913.8 -0.1 90
2020-03-22 03:00:00 6.4 3 Sur 6 Sudoeste 0 914 -0.3 90
2020-03-22 02:00:00 6.5 2 Norte 17 Sudoeste 0.2 913.9 0.1 89
2020-03-22 01:00:00 6.8 10 Sudoeste 21 Sudoeste 5.4 913.9 0.3 87
2020-03-22 00:00:00 7.4 5 Este 15 Sudoeste 0.6 914.3 1 86
2020-03-21 23:00:00 7.7 5 Sudoeste 11 Sudoeste 0 913.8 1 85
2020-03-21 22:00:00 8.1 0 Calma 11 Sudoeste 0 913.6 1 85
2020-03-21 21:00:00 8.2 6 Sudoeste 14 Sudoeste 0 913.3 0.9 84
2020-03-21 20:00:00 8.8 6 Oeste 10 Oeste 0 912.8 0.4 82
2020-03-21 19:00:00 9.2 4 Sur 18 Sudoeste 0 912.6 -0.1 80
2020-03-21 18:00:00 11 6 Oeste 22 Noroeste 0 912.4 -0.5 74
2020-03-21 17:00:00 11.2 5 Noroeste 11 Noroeste 0 912.4 -1 77
2020-03-21 16:00:00 10.3 6 Sudoeste 18 Sudoeste 0 912.7 -1.3 73
2020-03-21 15:00:00 10.5 10 Sudoeste 24 Este 0 912.9 -1.2 74
2020-03-21 14:00:00 11.1 13 Sudeste 27 Este 0 913.4 -0.6 69
2020-03-21 13:00:00 9.3 11 Sudeste 32 Sudeste 0 914 0.1 79
2020-03-21 12:00:00 8.5 11 Este 24 Este 0 914.1 0.4 85
2020-03-21 11:00:00 8 14 Este 24 Este 0.2 914 0.4 84
2020-03-21 10:00:00 7.5 9 Este 17 Este 0 913.9 0.3 88
2020-03-21 09:00:00 6.6 10 Este 20 Este 0 913.7 0.1 90
2020-03-21 08:00:00 6.5 7 Este 15 Este 0 913.6 -0.2 91
2020-03-21 07:00:00 6.5 7 Nordeste 13 Este 0 913.6 -0.3 92
2020-03-21 06:00:00 6.7 5 Este 17 Este 0.2 913.6 -0.8 92
2020-03-21 05:00:00 6.7 7 Nordeste 17 Nordeste 0.2 913.8 -0.8 92
2020-03-21 04:00:00 6.7 4 Este 21 Este 0 913.9 -1 91
2020-03-21 03:00:00 7.2 5 Nordeste 13 Este 0 914.4 -1 92
2020-03-21 02:00:00 7.6 4 Nordeste 10 Nordeste 0 914.6 -1 91
2020-03-21 01:00:00 7.8 4 Norte 8 Norte 0.2 914.9 -1 91
2020-03-21 00:00:00 7.9 2 Norte 6 Noroeste 0 915.4 -0.3 91
2020-03-20 23:00:00 8.2 3 Este 9 Este 0 915.6 0 89
2020-03-20 22:00:00 8.8 5 Este 9 Este 0 915.9 0.3 88
2020-03-20 21:00:00 9.3 0 Calma 4 Este 0 915.7 0.1 86
2020-03-20 20:00:00 9.6 2 Este 6 Nordeste 0 915.6 -0.1 84
2020-03-20 19:00:00 10.5 4 Nordeste 13 Nordeste 0 915.6 -0.7 80
2020-03-20 18:00:00 12.1 6 Norte 10 Nordeste 0 915.6 -1.2 76
2020-03-20 17:00:00 9.7 6 Sur 18 Sur 0 915.7 -1.2 82
2020-03-20 16:00:00 9.4 7 Sur 22 Sudoeste 1.6 916.3 -0.5 85
2020-03-20 15:00:00 10.1 5 Sur 9 Sur 1.4 916.8 -0.5 85
2020-03-20 14:00:00 10 7 Sudeste 18 Este 0.6 916.9 -0.6 81
2020-03-20 13:00:00 10.8 9 Este 20 Nordeste 0 916.8 -0.6 75
2020-03-20 12:00:00 9.2 5 Nordeste 15 Nordeste 0 917.3 0.2 84
2020-03-20 11:00:00 8.5 5 Nordeste 13 Nordeste 0 917.5 0.7 87
2020-03-20 10:00:00 7.8 4 Nordeste 11 Nordeste 0 917.4 0.8 88
2020-03-20 09:00:00 7.5 3 Este 8 Este 0 917.1 0.3 88
2020-03-20 08:00:00 7.2 4 Este 22 Norte 0.2 916.8 0 89
2020-03-20 07:00:00 7.3 0 Calma 5 Nordeste 0 916.6 -0.4 89
2020-03-20 06:00:00 7.4 0 Calma 8 Sur 0 916.8 -0.6 90
2020-03-20 05:00:00 7.4 3 Sudeste 5 Sudeste 0.2 916.8 -0.7 89
2020-03-20 04:00:00 7.6 0 Calma 11 Sur 0.2 917 -0.7 89
2020-03-20 03:00:00 7.6 2 Norte 5 Sudoeste 0 917.4 -0.8 88
2020-03-20 02:00:00 7.2 3 Sur 4 Sudeste 0 917.5 -1.1 85
2020-03-20 01:00:00 6.9 3 Sudoeste 6 Sur 0 917.7 -1 85
2020-03-20 00:00:00 7.5 0 Calma 4 Este 0 918.2 -0.4 82
2020-03-19 23:00:00 8.7 0 Calma 4 Sudeste 0 918.6 0 79
2020-03-19 22:00:00 10.1 0 Calma 8 Sudoeste 0 918.7 0.2 75
2020-03-19 21:00:00 10.6 4 Sur 5 Sudoeste 0 918.6 0.2 75
2020-03-19 20:00:00 12.5 4 Sur 11 Sudeste 0 918.6 -0.2 69
2020-03-19 19:00:00 14.1 4 Sudeste 21 Sudeste 0 918.5 -0.7 61
2020-03-19 18:00:00 15 9 Sur 23 Sur 0 918.4 -1.5 57
2020-03-19 17:00:00 16.3 8 Este 21 Nordeste 0 918.8 -2 55
2020-03-19 16:00:00 17 8 Este 19 Nordeste 0 919.2 -2.4 52
2020-03-19 15:00:00 17.1 6 Sudeste 18 Este 0 919.9 -2.4 49
2020-03-19 14:00:00 16.6 10 Este 22 Este 0 920.8 -2.2 53
2020-03-19 13:00:00 16.2 9 Este 20 Este 0 921.6 -1.7 56
2020-03-19 12:00:00 14.9 6 Este 17 Este 0 922.3 -0.9 60
2020-03-19 11:00:00 12.6 5 Este 15 Sudeste 0 923 -0.1 67
2020-03-19 10:00:00 10.4 3 Este 8 Este 0 923.3 0.1 75
2020-03-19 09:00:00 5.6 2 Noroeste 4 Sur 0 923.2 0.1 91
2020-03-19 08:00:00 2.9 0 Calma 11 Oeste 0 923.1 0 90
2020-03-19 07:00:00 3.1 0 Calma 4 Sur 0 923.2 0 89
2020-03-19 06:00:00 3.5 2 Norte 6 Sur 0 923.1 -0.7 89
2020-03-19 05:00:00 4 5 Sur 8 Sudeste 0 923.1 -1.1 89
2020-03-19 04:00:00 4.5 2 Sudoeste 4 Sur 0 923.2 -1.3 86
2020-03-19 03:00:00 4.9 0 Calma 7 Sudeste 0 923.8 -1.1 85
2020-03-19 02:00:00 6.2 3 Sur 8 Sur 0 924.2 -1.2 85
2020-03-19 01:00:00 6.5 4 Sur 6 Sur 0 924.5 -1 83
2020-03-19 00:00:00 7.2 4 Sur 7 Sudeste 0 924.9 -0.4 82
2020-03-18 23:00:00 8.2 4 Sur 5 Sur 0 925.4 0.2 78
2020-03-18 22:00:00 10 0 Calma 4 Sur 0 925.5 0.5 73
2020-03-18 21:00:00 11.4 4 Sudoeste 6 Sudoeste 0 925.3 0.3 68
2020-03-18 20:00:00 13.5 0 Calma 6 Este 0 925.2 0.2 62
2020-03-18 19:00:00 15.9 4 Este 54 Este 0 925 -0.4 52
2020-03-18 18:00:00 17 9 Nordeste 21 Este 0 925 -0.8 47
2020-03-18 17:00:00 18.1 9 Nordeste 23 Este 0 925 -1.5 45
2020-03-18 16:00:00 18.3 9 Este 24 Este 0 925.4 -2 47
2020-03-18 15:00:00 17.3 10 Este 23 Este 0 925.8 -2.2 48
2020-03-18 14:00:00 16.4 9 Nordeste 24 Este 0 926.5 -2.1 53
2020-03-18 13:00:00 15.3 10 Este 24 Sudeste 0 927.4 -1.2 57
2020-03-18 12:00:00 14.4 10 Este 25 Nordeste 0 928 -0.4 60
2020-03-18 11:00:00 12.3 9 Nordeste 25 Este 0 928.6 0.3 69
2020-03-18 10:00:00 10.7 10 Este 24 Este 0 928.6 0 73
2020-03-18 09:00:00 9 8 Este 16 Este 0 928.4 -0.1 80
2020-03-18 08:00:00 8.8 6 Nordeste 16 Nordeste 0 928.3 0 81
2020-03-18 07:00:00 8.7 3 Nordeste 12 Este 0 928.6 0.2 82
2020-03-18 06:00:00 8.8 5 Nordeste 13 Nordeste 0 928.5 -0.2 81
2020-03-18 05:00:00 8.7 4 Nordeste 12 Nordeste 0 928.3 -0.9 82
2020-03-18 04:00:00 8.8 5 Nordeste 13 Nordeste 0 928.4 -1 82
2020-03-18 03:00:00 8.6 5 Este 12 Nordeste 0 928.7 -1 82
2020-03-18 02:00:00 8.1 5 Este 8 Norte 0 929.2 -0.6 83
2020-03-18 01:00:00 7.9 2 Sudoeste 6 Este 0 929.4 -0.1 83
2020-03-18 00:00:00 7.7 3 Nordeste 6 Este 0 929.7 0.7 83
2020-03-17 23:00:00 8.1 0 Calma 11 Norte 0 929.8 1.5 82
2020-03-17 22:00:00 9.4 4 Nordeste 11 Este 0 929.5 1.8 79
2020-03-17 21:00:00 9.5 3 Norte 23 Este 0 929 1.8 77
2020-03-17 20:00:00 10.8 9 Nordeste 21 Nordeste 0 928.3 1.2 72
2020-03-17 19:00:00 12.1 10 Este 29 Este 0 927.7 0.9 66
2020-03-17 18:00:00 13.2 15 Nordeste 35 Este 0 927.2 0.6 62
2020-03-17 17:00:00 13 15 Nordeste 35 Nordeste 0 927.1 0.4 62
2020-03-17 16:00:00 12.8 18 Este 36 Este 0 926.8 -0.1 61
2020-03-17 15:00:00 13.2 17 Este 40 Este 0 926.6 -0.3 60
2020-03-17 14:00:00 12.9 18 Este 41 Sudeste 0 926.7 -0.4 59
2020-03-17 13:00:00 12.9 22 Este 43 Este 0 926.9 -0.2 58
2020-03-17 12:00:00 12 22 Este 46 Este 0 926.9 0.5 59
2020-03-17 11:00:00 10.6 19 Este 42 Nordeste 0 927.1 1.2 63
2020-03-17 10:00:00 8.3 13 Nordeste 37 Este 0 927.1 2 68
2020-03-17 09:00:00 7.5 15 Nordeste 35 Nordeste 0 926.4 2 67
2020-03-17 08:00:00 6.9 15 Este 27 Este 0 925.9 2.1 65
2020-03-17 07:00:00 6.2 7 Este 14 Este 0 925.1 1.7 63
2020-03-17 06:00:00 6 7 Este 13 Este 0 924.4 1.1 62
2020-03-17 05:00:00 5.9 6 Sudeste 15 Este 0 923.8 1 60
2020-03-17 04:00:00 6.5 8 Este 22 Nordeste 0 923.4 1 55
2020-03-17 03:00:00 6.5 8 Este 30 Nordeste 0 923.3 1.1 52
2020-03-17 02:00:00 6.5 13 Nordeste 32 Este 0 922.8 0.7 50
2020-03-17 01:00:00 6.5 11 Nordeste 31 Este 0 922.4 0.9 48
2020-03-17 00:00:00 6.4 12 Nordeste 33 Nordeste 0 922.2 1.3 45
2020-03-16 23:00:00 6.2 14 Este 28 Este 0 922.1 2 45
2020-03-16 22:00:00 6.3 9 Nordeste 28 Nordeste 0 921.5 1.8 45
2020-03-16 21:00:00 6.7 11 Nordeste 37 Norte 0 920.9 1.9 43
2020-03-16 20:00:00 7.5 13 Nordeste 55 Nordeste 0 920.1 1.3 43
2020-03-16 19:00:00 8.2 17 Nordeste 44 Norte 0 919.7 1.6 44
2020-03-16 18:00:00 9 22 Nordeste 49 Nordeste 0 919 1.1 38
2020-03-16 17:00:00 9.7 14 Nordeste 40 Nordeste 0 918.8 0.9 41
2020-03-16 16:00:00 10.1 14 Nordeste 38 Nordeste 0 918.1 -0.4 39
2020-03-16 15:00:00 10.1 15 Nordeste 47 Nordeste 0 917.9 -0.4 40
2020-03-16 14:00:00 10.6 23 Norte 46 Norte 0 917.9 0.1 40
2020-03-16 13:00:00 10 26 Norte 49 Norte 0 918.5 1.2 41
2020-03-16 12:00:00 9.6 26 Norte 60 Nordeste 0 918.3 1.1 42
2020-03-16 11:00:00 7.9 22 Nordeste 53 Norte 0 917.8 1.3 41
2020-03-16 10:00:00 7.4 19 Norte 45 Norte 0 917.3 1.5 45
2020-03-16 09:00:00 5.2 13 Norte 27 Norte 0 917.2 1.8 53
2020-03-16 08:00:00 3.6 12 Norte 55 Noroeste 0 916.5 1.6 59
2020-03-16 07:00:00 3.6 14 Norte 28 Norte 0 915.8 0.7 60
2020-03-16 06:00:00 3.6 15 Norte 35 Norte 0 915.4 0.1 63
2020-03-16 05:00:00 3.5 16 Norte 36 Norte 0 914.9 -0.1 64
2020-03-16 04:00:00 3.2 9 Norte 21 Norte 0 915.1 -0.1 67
2020-03-16 03:00:00 3.1 10 Norte 23 Noroeste 0 915.3 -0.1 69
2020-03-16 02:00:00 1.9 4 Sur 8 Sudeste 0 915 -0.2 83
2020-03-16 01:00:00 2.4 4 Sudoeste 12 Sur 0 915.2 0.4 77
2020-03-16 00:00:00 2.7 4 Sudoeste 13 Oeste 0 915.4 1.6 75
2020-03-15 23:00:00 2.3 8 Nordeste 21 Nordeste 0 915.2 1.5 75
2020-03-15 22:00:00 2.4 7 Este 24 Este 0 914.8 2.1 85
2020-03-15 21:00:00 3.9 7 Norte 27 Oeste 0.2 913.8 1.2 79
2020-03-15 20:00:00 4.8 23 Oeste 44 Oeste 0.6 913.7 1 75
2020-03-15 19:00:00 8.7 16 Oeste 39 Noroeste 0 912.7 -0.8 59
2020-03-15 18:00:00 10.4 20 Oeste 46 Sudoeste 0 912.6 -1.4 62
2020-03-15 17:00:00 13.8 18 Sudoeste 39 Sudoeste 0 912.7 -1.9 37
2020-03-15 16:00:00 14.3 18 Sudoeste 44 Sudoeste 0 913.5 -1.3 36
2020-03-15 15:00:00 13.4 24 Sudoeste 49 Sudoeste 0 914 -1.4 34
2020-03-15 14:00:00 14.6 22 Oeste 41 Sudoeste 0 914.6 -1.7 32
2020-03-15 13:00:00 16 17 Sudoeste 40 Oeste 0 914.8 -2.3 30
2020-03-15 12:00:00 14.9 20 Sudoeste 35 Sudoeste 0 915.4 -1.7 32
2020-03-15 11:00:00 13.5 9 Sudoeste 28 Sudoeste 0 916.3 -0.9 42
2020-03-15 10:00:00 9.3 2 Sudeste 8 Norte 0 917.1 -0.4 66
2020-03-15 09:00:00 2 0 Calma 6 Norte 0 917.1 -0.8 89
2020-03-15 08:00:00 -0.5 4 Sur 10 Noroeste 0 917.2 -1 91
2020-03-15 07:00:00 -1.4 3 Sur 6 Sudoeste 0 917.5 -1.3 88
2020-03-15 06:00:00 -0.8 6 Sur 8 Sudeste 0 917.9 -1.7 88
2020-03-15 05:00:00 0.2 0 Calma 4 Sudeste 0 918.2 -1.9 86
2020-03-15 04:00:00 0.5 3 Sudeste 5 Sudeste 0 918.8 -1.8 83
2020-03-15 03:00:00 1.6 3 Sur 5 Sur 0 919.6 -1.4 82
2020-03-15 02:00:00 2.8 2 Sur 5 Sur 0 920.1 -1 80
2020-03-15 01:00:00 4.3 2 Sur 5 Sur 0 920.6 -0.4 71
2020-03-15 00:00:00 6 2 Nordeste 8 Oeste 0 921 -0.1 65
2020-03-14 23:00:00 8.5 6 Oeste 13 Sudoeste 0 921.1 0.1 59
2020-03-14 22:00:00 10.1 9 Sur 16 Sudoeste 0 921 0.2 50
2020-03-14 21:00:00 10.4 3 Sudoeste 13 Sudoeste 0 921.1 0.2 51
2020-03-14 20:00:00 12.4 6 Sur 13 Sur 0 921 -0.2 44
2020-03-14 19:00:00 16.7 8 Sudoeste 21 Sudoeste 0 920.8 -0.8 30
2020-03-14 18:00:00 18.2 9 Sur 55 Sudoeste 0 920.9 -1.2 31
2020-03-14 17:00:00 18.8 12 Sur 23 Sudoeste 0 921.2 -1.6 29
2020-03-14 16:00:00 18.7 8 Sur 22 Sur 0 921.6 -1.9 23
2020-03-14 15:00:00 18.2 10 Sudoeste 20 Sudoeste 0 922.1 -2 30
2020-03-14 14:00:00 17.7 6 Sudeste 16 Sudeste 0 922.8 -1.8 38
2020-03-14 13:00:00 15.9 6 Este 15 Este 0 923.5 -1.2 47
2020-03-14 12:00:00 12.8 4 Norte 13 Norte 0 924.1 -0.4 57
2020-03-14 11:00:00 10.4 3 Norte 9 Norte 0 924.6 0.4 68
2020-03-14 10:00:00 6.3 4 Noroeste 7 Norte 0 924.7 0.9 81
2020-03-14 09:00:00 0.4 0 Calma 3 Este 0 924.5 0.9 94
2020-03-14 08:00:00 -2 3 Sudeste 9 Sudeste 0 924.2 0.9 93
2020-03-14 07:00:00 -1.6 2 Noroeste 10 Sur 0 923.8 0.4 92
2020-03-14 06:00:00 -1.2 4 Sur 7 Sur 0 923.6 -0.4 92
2020-03-14 05:00:00 -1.2 2 Sur 5 Sudeste 0 923.3 -0.7 90
2020-03-14 04:00:00 -0.5 4 Sur 6 Sur 0 923.4 -0.8 90
2020-03-14 03:00:00 0.3 3 Sur 5 Sur 0 924 -0.4 89
2020-03-14 02:00:00 0.8 4 Sur 6 Sur 0 924 0 86
2020-03-14 01:00:00 3.1 4 Norte 8 Sur 0 924.2 0.8 85
2020-03-14 00:00:00 4.1 3 Sur 6 Nordeste 0 924.4 1.5 81
2020-03-13 23:00:00 6.1 4 Noroeste 8 Noroeste 0 924 2.1 80
2020-03-13 22:00:00 7.5 0 Calma 9 Este 0 923.4 1.9 75
2020-03-13 21:00:00 9.3 3 Este 9 Sur 0 922.9 1.8 72
2020-03-13 20:00:00 11.7 6 Sur 14 Este 0 921.9 0.6 62
2020-03-13 19:00:00 14.8 7 Sudeste 16 Sudeste 0 921.5 -0.1 50
2020-03-13 18:00:00 16.5 9 Este 17 Sudeste 0 921.1 -0.8 44
2020-03-13 17:00:00 16.9 4 Este 17 Nordeste 0 921.3 -1.1 42
2020-03-13 16:00:00 17.3 9 Nordeste 19 Este 0 921.6 -1.4 41
2020-03-13 15:00:00 16.7 6 Norte 23 Este 0 921.9 -1.5 43
2020-03-13 14:00:00 15.1 9 Este 24 Este 0 922.4 -1.2 47
2020-03-13 13:00:00 13.9 13 Este 29 Este 0 923 -0.7 51
2020-03-13 12:00:00 13.2 15 Este 28 Nordeste 0 923.4 -0.3 55
2020-03-13 11:00:00 12.1 12 Este 77 Noroeste 0 923.6 0.2 59
2020-03-13 10:00:00 9.9 10 Este 21 Este 0 923.7 0.6 69
2020-03-13 09:00:00 5.9 4 Norte 7 Norte 0 923.7 0.9 88
2020-03-13 08:00:00 4.7 0 Calma 5 Este 0 923.4 0.6 88
2020-03-13 07:00:00 4.2 0 Calma 5 Sudeste 0 923.1 0.2 88
2020-03-13 06:00:00 4.5 0 Calma 4 Este 0 922.8 -0.3 88
2020-03-13 05:00:00 4.6 3 Norte 7 Sur 0 922.8 -0.6 89
2020-03-13 04:00:00 4.4 2 Sur 6 Este 0 922.9 -0.5 88
2020-03-13 03:00:00 5 3 Nordeste 8 Norte 0 923.1 -0.4 86
2020-03-13 02:00:00 5.8 4 Nordeste 10 Este 0 923.4 0.2 84
2020-03-13 01:00:00 6.9 4 Norte 17 Este 0 923.4 0.6 81
2020-03-13 00:00:00 8.3 10 Este 26 Este 0 923.5 1.8 78
2020-03-12 23:00:00 9.7 12 Este 27 Este 0 923.2 2.3 77
2020-03-12 22:00:00 11 10 Este 26 Nordeste 0 922.8 2.5 75
2020-03-12 21:00:00 13.2 13 Este 29 Nordeste 0 921.7 1.6 72
2020-03-12 20:00:00 15.1 4 Norte 17 Sudoeste 0 920.9 0.8 59
2020-03-12 19:00:00 17.8 5 Sudoeste 51 Oeste 0 920.3 0 50
2020-03-12 18:00:00 19.4 6 Oeste 21 Sudoeste 0 920.1 -0.7 46
2020-03-12 17:00:00 19.4 9 Sudoeste 22 Sudoeste 0 920.1 -1.4 45
2020-03-12 16:00:00 21.2 12 Sudoeste 24 Oeste 0 920.3 -1.9 34
2020-03-12 15:00:00 20.5 10 Sur 22 Sudoeste 0 920.8 -1.9 35
2020-03-12 14:00:00 20 8 Sudoeste 19 Sur 0 921.5 -1.6 38
2020-03-12 13:00:00 21.6 6 Norte 14 Norte 0 922.2 -1 38
2020-03-12 12:00:00 18.9 3 Nordeste 9 Norte 0 922.7 -0.3 42
2020-03-12 11:00:00 14 4 Norte 9 Noroeste 0 923.1 0.6 59
2020-03-12 10:00:00 10.3 0 Calma 5 Sudeste 0 923.2 0.9 71
2020-03-12 09:00:00 7.1 2 Sudeste 4 Norte 0 923 0.7 82
2020-03-12 08:00:00 5.8 3 Sur 7 Sur 0 922.5 0 81
2020-03-12 07:00:00 6.3 2 Sudeste 3 Este 0 922.3 -0.6 79
2020-03-12 06:00:00 6.7 4 Sudeste 6 Norte 0 922.3 -1.2 79
2020-03-12 05:00:00 6.7 0 Calma 6 Sudeste 0 922.5 -1.5 79
2020-03-12 04:00:00 6.7 0 Calma 3 Norte 0 922.9 -1.4 78
2020-03-12 03:00:00 6.9 3 Norte 5 Norte 0 923.5 -0.9 77
2020-03-12 02:00:00 7.6 3 Noroeste 7 Sudeste 0 924 -0.6 76
2020-03-12 01:00:00 7.9 4 Sudeste 7 Sudeste 0 924.3 -0.3 73
2020-03-12 00:00:00 9.3 4 Norte 5 Sudoeste 0 924.4 0 68
2020-03-11 23:00:00 11.1 3 Sur 10 Nordeste 0 924.6 0.1 61
2020-03-11 22:00:00 14.9 4 Oeste 17 Oeste 0 924.6 0.1 48
2020-03-11 21:00:00 16.1 12 Sudoeste 18 Oeste 0 924.4 0.3 45
2020-03-11 20:00:00 16.8 11 Sudoeste 18 Oeste 0 924.5 0.3 43
2020-03-11 19:00:00 19.3 8 Sudoeste 32 Sudoeste 0 924.5 0 35
2020-03-11 18:00:00 21.8 16 Sudoeste 33 Oeste 0 924.1 -0.7 31
2020-03-11 17:00:00 22.7 15 Oeste 33 Oeste 0 924.2 -1.3 28
2020-03-11 16:00:00 22.7 17 Oeste 39 Sudoeste 0 924.5 -1.7 28
2020-03-11 15:00:00 22.4 17 Sudoeste 35 Sudoeste 0 924.8 -1.9 26
2020-03-11 14:00:00 21.3 16 Sudoeste 35 Sudoeste 0 925.5 -1.5 25
2020-03-11 13:00:00 20.5 11 Sudoeste 27 Sudoeste 0 926.2 -0.8 25
2020-03-11 12:00:00 18.6 4 Noroeste 9 Noroeste 0 926.7 -0.1 39
2020-03-11 11:00:00 14.8 3 Noroeste 12 Norte 0 927 0.2 45
2020-03-11 10:00:00 11.4 6 Norte 10 Norte 0 927 0.4 54
2020-03-11 09:00:00 4.3 2 Norte 4 Norte 0 926.8 0.4 86
2020-03-11 08:00:00 1.6 2 Nordeste 5 Sudeste 0 926.8 0.5 84
2020-03-11 07:00:00 2 3 Norte 6 Sudeste 0 926.6 0.2 82
2020-03-11 06:00:00 3.4 0 Calma 3 Sur 0 926.4 -0.4 80
2020-03-11 05:00:00 4.8 2 Norte 6 Sudeste 0 926.3 -0.8 75
2020-03-11 04:00:00 7 2 Sudeste 7 Norte 0 926.4 -0.8 70
2020-03-11 03:00:00 9.8 3 Este 29 Sudoeste 0 926.8 -0.7 58
2020-03-11 02:00:00 12 12 Oeste 26 Oeste 0 927.1 -0.5 55
2020-03-11 01:00:00 12.6 11 Sudoeste 36 Sudoeste 0 927.2 -0.4 49
2020-03-11 00:00:00 12.8 24 Sudoeste 36 Sudoeste 0 927.5 -0.1 45